createdAt,value
2023-03-29T00:00:00.416Z,86.90
2023-03-29T00:02:33.579Z,86.50
2023-03-29T00:05:04.851Z,86.50
2023-03-29T00:07:35.489Z,86.50
2023-03-29T00:10:04.618Z,86.90
2023-03-29T00:12:32.561Z,86.50
2023-03-29T00:15:00.340Z,86.50
2023-03-29T00:17:28.378Z,87.40
2023-03-29T00:19:55.743Z,88.00
2023-03-29T00:22:23.082Z,88.50
2023-03-29T00:24:54.271Z,89.10
2023-03-29T00:27:22.285Z,90.00
2023-03-29T00:29:49.613Z,90.40
2023-03-29T00:32:17.097Z,90.30
2023-03-29T00:34:46.054Z,89.60
2023-03-29T00:37:14.733Z,89.10
2023-03-29T00:39:42.320Z,89.50
2023-03-29T00:42:13.729Z,89.10
2023-03-29T00:45:16.188Z,87.90
2023-03-29T00:47:53.162Z,88.60
2023-03-29T00:50:31.819Z,88.70
2023-03-29T00:53:08.954Z,88.20
2023-03-29T00:55:55.432Z,88.50
2023-03-29T00:58:36.410Z,88.70
2023-03-29T01:01:19.369Z,88.50
2023-03-29T01:03:54.912Z,87.80
2023-03-29T01:06:27.149Z,87.80
2023-03-29T01:08:58.411Z,87.80
2023-03-29T01:11:43.987Z,86.90
2023-03-29T01:14:29.882Z,87.00
2023-03-29T01:16:58.114Z,86.90
2023-03-29T01:19:30.258Z,87.00
2023-03-29T01:22:39.126Z,88.10
2023-03-29T01:28:10.028Z,88.20
2023-03-29T01:30:43.736Z,87.90
2023-03-29T01:33:21.262Z,88.10
2023-03-29T01:36:11.760Z,88.10
2023-03-29T01:38:54.998Z,88.80
2023-03-29T01:41:26.685Z,90.10
2023-03-29T01:44:21.575Z,90.40
2023-03-29T01:46:58.723Z,90.30
2023-03-29T01:49:34.458Z,90.60
2023-03-29T01:52:08.221Z,90.50
2023-03-29T01:54:41.277Z,90.80
2023-03-29T01:57:10.621Z,91.20
2023-03-29T01:59:42.780Z,91.10
2023-03-29T02:02:14.736Z,91.30
2023-03-29T02:04:49.945Z,91.50
2023-03-29T02:07:21.002Z,91.70
2023-03-29T02:09:52.496Z,92.00
2023-03-29T02:12:20.590Z,92.10
2023-03-29T02:14:47.964Z,92.50
2023-03-29T02:17:23.886Z,92.20
2023-03-29T02:20:00.707Z,92.00
2023-03-29T02:22:33.392Z,92.00
2023-03-29T02:25:04.819Z,91.90
2023-03-29T02:27:32.084Z,91.40
2023-03-29T02:29:59.562Z,91.20
2023-03-29T02:32:35.089Z,91.30
2023-03-29T02:35:12.811Z,91.80
2023-03-29T02:37:44.190Z,91.90
2023-03-29T02:40:13.106Z,91.90
2023-03-29T02:42:43.763Z,91.70
2023-03-29T02:45:14.649Z,91.80
2023-03-29T02:47:46.892Z,91.70
2023-03-29T02:50:14.439Z,91.80
2023-03-29T02:52:52.971Z,92.00
2023-03-29T02:55:24.305Z,92.60
2023-03-29T02:57:51.751Z,93.10
2023-03-29T03:00:19.995Z,92.50
2023-03-29T03:02:48.619Z,92.70
2023-03-29T03:05:17.457Z,93.70
2023-03-29T03:07:46.090Z,94.00
2023-03-29T03:15:13.614Z,94.30
2023-03-29T03:17:41.789Z,93.90
2023-03-29T03:20:13.880Z,93.50
2023-03-29T03:22:48.696Z,93.10
2023-03-29T03:25:19.379Z,93.00
2023-03-29T03:27:48.438Z,92.60
2023-03-29T03:30:16.323Z,92.60
2023-03-29T03:33:06.872Z,92.60
2023-03-29T03:35:56.885Z,92.40
2023-03-29T03:38:24.608Z,92.70
2023-03-29T03:40:58.570Z,92.60
2023-03-29T03:43:27.133Z,92.60
2023-03-29T03:45:57.568Z,92.70
2023-03-29T03:48:26.070Z,93.10
2023-03-29T03:51:19.948Z,93.70
2023-03-29T03:53:48.321Z,94.00
2023-03-29T03:56:29.691Z,94.20
2023-03-29T03:59:15.847Z,94.60
2023-03-29T04:01:51.356Z,94.80
2023-03-29T04:04:22.225Z,94.70
2023-03-29T04:07:12.946Z,94.50
2023-03-29T04:09:56.362Z,94.50
2023-03-29T04:12:46.628Z,94.10
2023-03-29T04:15:13.988Z,94.20
2023-03-29T04:17:48.373Z,93.90
2023-03-29T04:20:27.318Z,93.80
2023-03-29T04:22:55.922Z,93.90
2023-03-29T04:25:23.738Z,94.00
2023-03-29T04:28:12.224Z,94.00
2023-03-29T04:30:49.075Z,94.10
2023-03-29T04:33:23.626Z,94.10
2023-03-29T04:35:59.005Z,93.80
2023-03-29T04:38:26.664Z,93.80
2023-03-29T04:40:55.685Z,93.80
2023-03-29T04:43:46.297Z,93.40
2023-03-29T04:46:27.050Z,93.70
2023-03-29T04:49:13.346Z,93.80
2023-03-29T04:51:43.939Z,93.30
2023-03-29T04:54:12.158Z,92.50
2023-03-29T04:57:08.117Z,92.70
2023-03-29T04:59:35.359Z,93.00
2023-03-29T05:02:08.565Z,93.40
2023-03-29T05:04:38.619Z,93.60
2023-03-29T05:07:13.112Z,93.50
2023-03-29T05:09:41.729Z,93.50
2023-03-29T05:12:10.176Z,93.30
2023-03-29T05:14:48.460Z,93.40
2023-03-29T05:17:16.466Z,93.50
2023-03-29T05:19:45.957Z,93.10
2023-03-29T05:22:15.307Z,92.90
2023-03-29T05:24:43.315Z,93.10
2023-03-29T05:27:17.550Z,92.90
2023-03-29T05:29:54.627Z,93.00
2023-03-29T05:32:41.642Z,93.20
2023-03-29T05:35:11.644Z,93.40
2023-03-29T05:37:39.556Z,93.50
2023-03-29T05:40:10.068Z,93.80
2023-03-29T05:42:54.177Z,94.20
2023-03-29T05:45:22.987Z,94.70
2023-03-29T05:47:51.055Z,94.30
2023-03-29T05:50:18.572Z,94.50
2023-03-29T05:52:47.355Z,94.80
2023-03-29T05:55:14.843Z,94.80
2023-03-29T05:57:42.185Z,95.00
2023-03-29T06:00:21.788Z,95.30
2023-03-29T06:02:50.910Z,95.30
2023-03-29T06:05:20.247Z,95.20
2023-03-29T06:08:01.985Z,95.30
2023-03-29T06:10:44.171Z,95.30
2023-03-29T06:13:25.107Z,95.80
2023-03-29T06:15:53.308Z,96.20
2023-03-29T06:18:20.898Z,96.40
2023-03-29T06:20:50.825Z,96.50
2023-03-29T06:23:21.523Z,96.40
2023-03-29T06:25:51.446Z,96.20
2023-03-29T06:28:19.510Z,96.20
2023-03-29T06:30:48.218Z,95.60
2023-03-29T06:33:16.976Z,94.80
2023-03-29T06:35:51.360Z,95.00
2023-03-29T06:38:26.758Z,94.20
2023-03-29T06:41:32.136Z,93.80
2023-03-29T06:44:08.908Z,93.20
2023-03-29T06:46:42.932Z,92.50
2023-03-29T06:49:10.488Z,91.60
2023-03-29T06:52:04.033Z,90.70
2023-03-29T06:54:31.698Z,89.60
2023-03-29T06:57:05.789Z,86.70
2023-03-29T06:59:35.015Z,85.40
2023-03-29T07:02:12.804Z,84.30
2023-03-29T07:04:48.707Z,82.80
2023-03-29T07:07:33.152Z,81.40
2023-03-29T07:10:12.962Z,80.40
2023-03-29T07:13:15.747Z,78.20
2023-03-29T07:15:44.870Z,77.10
2023-03-29T07:18:35.005Z,75.80
2023-03-29T07:21:02.847Z,74.90
2023-03-29T07:23:30.506Z,75.90
2023-03-29T07:25:58.022Z,76.00
2023-03-29T07:28:26.877Z,76.10
2023-03-29T07:31:02.459Z,75.70
2023-03-29T07:33:31.510Z,75.80
2023-03-29T07:36:03.417Z,75.50
2023-03-29T07:38:32.436Z,74.70
2023-03-29T07:41:08.157Z,74.10
2023-03-29T07:43:44.655Z,73.60
2023-03-29T07:46:14.108Z,73.60
2023-03-29T07:48:42.232Z,73.30
2023-03-29T07:51:11.830Z,72.30
2023-03-29T07:53:47.988Z,73.80
2023-03-29T07:56:41.548Z,73.50
2023-03-29T07:59:41.399Z,74.00
2023-03-29T08:02:13.334Z,73.70
2023-03-29T08:04:44.928Z,73.50
2023-03-29T08:07:19.035Z,71.50
2023-03-29T08:10:13.701Z,71.40
2023-03-29T08:13:09.338Z,71.60
2023-03-29T08:15:55.494Z,71.90
2023-03-29T08:18:34.716Z,69.90
2023-03-29T08:21:04.787Z,71.40
2023-03-29T08:23:32.618Z,69.60
2023-03-29T08:26:22.131Z,71.60
2023-03-29T08:28:50.788Z,71.30
2023-03-29T08:31:19.419Z,70.60
2023-03-29T08:33:46.808Z,69.80
2023-03-29T08:36:47.118Z,70.00
2023-03-29T08:39:23.082Z,70.50
2023-03-29T08:42:24.598Z,69.90
2023-03-29T08:45:10.044Z,70.00
2023-03-29T08:47:59.517Z,70.60
2023-03-29T08:50:40.836Z,72.80
2023-03-29T08:53:27.793Z,70.60
2023-03-29T08:56:16.440Z,71.20
2023-03-29T08:59:14.600Z,70.90
2023-03-29T09:01:42.574Z,69.80
2023-03-29T09:04:16.493Z,70.80
2023-03-29T09:07:11.129Z,70.80
2023-03-29T09:09:46.061Z,70.30
2023-03-29T09:12:52.761Z,70.20
2023-03-29T09:15:38.981Z,70.10
2023-03-29T09:18:38.859Z,70.00
2023-03-29T09:21:31.692Z,70.80
2023-03-29T09:24:28.876Z,71.70
2023-03-29T09:27:20.764Z,71.60
2023-03-29T09:30:04.711Z,70.70
2023-03-29T09:33:01.197Z,72.00
2023-03-29T09:35:53.774Z,72.00
2023-03-29T09:38:22.910Z,72.30
2023-03-29T09:40:57.212Z,72.20
2023-03-29T09:43:41.037Z,71.70
2023-03-29T09:46:40.569Z,71.50
2023-03-29T09:49:16.068Z,71.70
2023-03-29T09:51:49.088Z,70.80
2023-03-29T09:54:17.698Z,71.40
2023-03-29T09:57:03.790Z,71.30
2023-03-29T09:59:31.659Z,71.20
2023-03-29T10:02:11.882Z,72.20
2023-03-29T10:07:18.742Z,73.00
2023-03-29T10:09:51.848Z,73.50
2023-03-29T10:12:21.252Z,73.50
2023-03-29T10:14:53.466Z,73.60
2023-03-29T10:17:29.531Z,74.00
2023-03-29T10:20:04.027Z,73.20
2023-03-29T10:22:37.641Z,74.30
2023-03-29T10:25:13.265Z,74.20
2023-03-29T10:27:43.556Z,74.20
2023-03-29T10:30:18.867Z,75.20
2023-03-29T10:32:46.993Z,75.30
2023-03-29T10:35:22.543Z,74.40
2023-03-29T10:37:52.931Z,75.30
2023-03-29T10:40:29.317Z,75.30
2023-03-29T10:43:01.873Z,76.00
2023-03-29T10:45:34.044Z,77.10
2023-03-29T10:48:03.739Z,78.00
2023-03-29T10:50:35.903Z,78.80
2023-03-29T10:53:07.423Z,78.50
2023-03-29T10:55:41.742Z,79.10
2023-03-29T10:58:15.657Z,79.40
2023-03-29T11:00:53.962Z,79.40
2023-03-29T11:03:27.508Z,80.30
2023-03-29T11:06:07.668Z,80.60
2023-03-29T11:08:51.213Z,80.90
2023-03-29T11:12:01.248Z,81.20
2023-03-29T11:15:10.327Z,80.90
2023-03-29T11:17:43.517Z,81.30
2023-03-29T11:20:37.967Z,81.70
2023-03-29T11:23:07.973Z,81.70
2023-03-29T11:25:47.256Z,82.00
2023-03-29T11:28:19.605Z,82.60
2023-03-29T11:31:19.253Z,82.30
2023-03-29T11:34:00.277Z,83.60
2023-03-29T11:36:57.101Z,83.80
2023-03-29T11:39:27.036Z,84.10
2023-03-29T11:42:02.150Z,84.70
2023-03-29T11:44:31.380Z,84.70
2023-03-29T11:47:13.837Z,86.10
2023-03-29T11:50:00.551Z,85.90
2023-03-29T11:52:42.822Z,85.30
2023-03-29T11:55:13.425Z,85.60
2023-03-29T11:58:04.185Z,85.70
2023-03-29T12:00:37.439Z,86.30
2023-03-29T12:03:19.679Z,85.20
2023-03-29T12:05:58.159Z,84.80
2023-03-29T12:08:48.102Z,84.50
2023-03-29T12:11:33.345Z,84.60
2023-03-29T12:14:06.803Z,84.20
2023-03-29T12:16:48.921Z,84.10
2023-03-29T12:19:28.805Z,84.10
2023-03-29T12:21:58.139Z,84.60
2023-03-29T12:24:31.729Z,84.20
2023-03-29T12:27:31.738Z,83.50
2023-03-29T12:30:16.364Z,83.90
2023-03-29T12:32:57.462Z,84.30
2023-03-29T12:36:01.806Z,84.20
2023-03-29T12:38:51.194Z,84.90
2023-03-29T12:41:38.279Z,83.10
2023-03-29T12:44:25.852Z,83.50
2023-03-29T12:46:59.332Z,84.50
2023-03-29T12:49:37.610Z,84.80
2023-03-29T12:52:30.464Z,84.90
2023-03-29T12:55:00.849Z,85.00
2023-03-29T12:57:44.302Z,84.70
2023-03-29T13:00:42.297Z,83.60
2023-03-29T13:03:27.451Z,84.20
2023-03-29T13:06:12.482Z,83.70
2023-03-29T13:08:42.990Z,83.70
2023-03-29T13:11:31.251Z,84.60
2023-03-29T13:14:01.684Z,84.30
2023-03-29T13:16:34.722Z,84.00
2023-03-29T13:19:07.711Z,84.60
2023-03-29T13:21:53.883Z,85.40
2023-03-29T13:24:30.045Z,85.10
2023-03-29T13:27:27.487Z,84.80
2023-03-29T13:30:14.308Z,85.10
2023-03-29T13:33:06.456Z,84.60
2023-03-29T13:36:02.170Z,85.30
2023-03-29T13:38:35.553Z,85.00
2023-03-29T13:41:12.174Z,84.60
2023-03-29T13:43:52.689Z,83.80
2023-03-29T13:46:43.381Z,84.80
2023-03-29T13:49:27.048Z,84.10
2023-03-29T13:51:54.313Z,83.80
2023-03-29T13:54:45.883Z,82.90
2023-03-29T13:57:20.122Z,82.70
2023-03-29T14:00:17.734Z,84.10
2023-03-29T14:02:51.777Z,84.20
2023-03-29T14:05:29.333Z,83.70
2023-03-29T14:07:58.979Z,82.20
2023-03-29T14:10:33.279Z,83.00
2023-03-29T14:13:03.870Z,82.40
2023-03-29T14:15:44.023Z,82.70
2023-03-29T14:18:14.924Z,82.70
2023-03-29T14:20:53.519Z,82.20
2023-03-29T14:23:27.083Z,81.50
2023-03-29T14:25:54.336Z,81.20
2023-03-29T14:28:27.831Z,81.50
2023-03-29T14:30:56.199Z,81.70
2023-03-29T14:33:34.646Z,81.60
2023-03-29T14:36:04.164Z,81.40
2023-03-29T14:38:32.327Z,80.00
2023-03-29T14:41:01.092Z,80.30
2023-03-29T14:43:32.020Z,80.70
2023-03-29T14:46:02.865Z,80.40
2023-03-29T14:48:33.104Z,81.20
2023-03-29T14:51:01.048Z,81.00
2023-03-29T14:53:31.822Z,81.20
2023-03-29T14:55:59.660Z,81.30
2023-03-29T14:58:33.465Z,80.20
2023-03-29T15:01:16.080Z,80.70
2023-03-29T15:03:54.940Z,82.00
2023-03-29T15:06:24.888Z,83.70
2023-03-29T15:09:04.419Z,84.80
2023-03-29T15:11:33.961Z,84.00
2023-03-29T15:14:08.539Z,83.90
2023-03-29T15:16:45.059Z,83.70
2023-03-29T15:19:19.659Z,84.20
2023-03-29T15:21:51.174Z,85.80
2023-03-29T15:24:31.152Z,86.50
2023-03-29T15:27:19.613Z,87.50
2023-03-29T15:29:47.948Z,85.80
2023-03-29T15:32:31.519Z,85.10
2023-03-29T15:35:00.158Z,85.50
2023-03-29T15:37:28.015Z,86.10
2023-03-29T15:39:56.319Z,86.50
2023-03-29T15:42:24.718Z,87.80
2023-03-29T15:44:56.553Z,87.90
2023-03-29T15:47:24.224Z,88.60
2023-03-29T15:49:51.830Z,88.90
2023-03-29T15:52:19.161Z,88.80
2023-03-29T15:54:46.424Z,89.30
2023-03-29T15:57:16.201Z,89.20
2023-03-29T15:59:44.328Z,89.50
2023-03-29T16:02:16.551Z,89.70
2023-03-29T16:04:44.076Z,89.80
2023-03-29T16:07:17.071Z,89.90
2023-03-29T16:09:45.855Z,90.00
2023-03-29T16:12:13.501Z,90.10
2023-03-29T16:14:42.611Z,90.40
2023-03-29T16:17:10.807Z,90.70
2023-03-29T16:19:38.112Z,90.90
2023-03-29T16:22:07.173Z,90.90
2023-03-29T16:24:35.575Z,91.00
2023-03-29T16:27:03.700Z,91.20
2023-03-29T16:29:31.626Z,90.90
2023-03-29T16:31:59.319Z,90.90
2023-03-29T16:34:26.711Z,91.00
2023-03-29T16:36:54.133Z,91.30
2023-03-29T16:39:21.491Z,91.40
2023-03-29T16:41:50.019Z,91.40
2023-03-29T16:44:22.458Z,91.40
2023-03-29T16:46:53.587Z,91.30
2023-03-29T16:49:20.863Z,91.50
2023-03-29T16:51:48.592Z,91.70
2023-03-29T16:54:17.255Z,91.90
2023-03-29T16:56:44.545Z,92.10
2023-03-29T16:59:12.208Z,92.40
2023-03-29T17:01:40.582Z,92.50
2023-03-29T17:04:08.561Z,92.70
2023-03-29T17:06:36.006Z,92.80
2023-03-29T17:09:04.892Z,93.00
2023-03-29T17:11:32.560Z,93.10
2023-03-29T17:14:00.346Z,93.30
2023-03-29T17:16:29.137Z,93.30
2023-03-29T17:19:00.308Z,93.70
2023-03-29T17:21:29.130Z,93.80
2023-03-29T17:23:56.530Z,94.00
2023-03-29T17:26:24.229Z,94.00
2023-03-29T17:28:51.556Z,94.20
2023-03-29T17:31:19.354Z,94.30
2023-03-29T17:33:47.412Z,94.70
2023-03-29T17:36:14.962Z,94.80
2023-03-29T17:38:43.072Z,94.90
2023-03-29T17:41:10.975Z,95.20
2023-03-29T17:43:38.246Z,95.20
2023-03-29T17:46:06.098Z,95.40
2023-03-29T17:48:33.472Z,95.50
2023-03-29T17:51:00.786Z,95.80
2023-03-29T17:53:28.148Z,96.00
2023-03-29T17:55:55.400Z,96.40
2023-03-29T17:58:22.715Z,96.50
2023-03-29T18:00:50.350Z,96.70
2023-03-29T18:03:18.014Z,96.70
2023-03-29T18:05:45.508Z,96.90
2023-03-29T18:08:14.798Z,97.30
2023-03-29T18:10:42.085Z,97.20
2023-03-29T18:13:13.749Z,97.30
2023-03-29T18:15:41.409Z,97.40
2023-03-29T18:18:08.644Z,97.60
2023-03-29T18:20:35.968Z,97.70
2023-03-29T18:23:03.345Z,97.80
2023-03-29T18:25:30.604Z,98.00
2023-03-29T18:27:57.887Z,98.20
2023-03-29T18:30:28.904Z,98.30
2023-03-29T18:32:56.286Z,98.40
2023-03-29T18:35:23.737Z,98.60
2023-03-29T18:37:52.198Z,98.80
2023-03-29T18:40:24.439Z,98.90
2023-03-29T18:42:51.944Z,98.90
2023-03-29T18:45:19.469Z,99.10
2023-03-29T18:47:46.874Z,99.30
2023-03-29T18:50:14.274Z,99.40
2023-03-29T18:52:42.043Z,99.50
2023-03-29T18:55:10.215Z,99.80
2023-03-29T18:57:37.592Z,99.40
2023-03-29T19:00:10.537Z,99.40
2023-03-29T19:02:41.613Z,99.40
2023-03-29T19:05:09.501Z,99.70
2023-03-29T19:07:37.032Z,99.80
2023-03-29T19:10:07.314Z,99.90
2023-03-29T19:12:35.206Z,99.80
2023-03-29T19:15:02.537Z,99.90
2023-03-29T19:17:30.076Z,99.90
2023-03-29T19:19:57.498Z,99.90
2023-03-29T19:22:24.886Z,99.90
2023-03-29T19:24:52.227Z,99.90
2023-03-29T19:27:19.624Z,99.90
2023-03-29T19:29:48.062Z,99.90
2023-03-29T19:32:15.458Z,99.90
2023-03-29T19:34:42.712Z,99.90
2023-03-29T19:37:10.059Z,99.90
2023-03-29T19:39:37.377Z,99.90
2023-03-29T19:42:04.771Z,99.90
2023-03-29T19:44:32.047Z,99.90
2023-03-29T19:46:59.465Z,99.90
2023-03-29T19:49:27.191Z,99.90
2023-03-29T19:51:58.272Z,99.90
2023-03-29T19:54:26.615Z,99.90
2023-03-29T19:56:57.420Z,99.90
2023-03-29T19:59:26.839Z,99.90
2023-03-29T20:01:57.197Z,99.90
2023-03-29T20:04:25.634Z,99.90
2023-03-29T20:06:53.452Z,99.90
2023-03-29T20:09:20.890Z,99.90
2023-03-29T20:11:48.210Z,99.90
2023-03-29T20:14:15.957Z,99.90
2023-03-29T20:16:44.727Z,99.90
2023-03-29T20:19:14.105Z,99.90
2023-03-29T20:21:41.461Z,99.90
2023-03-29T20:24:09.242Z,99.90
2023-03-29T20:26:39.722Z,99.90
2023-03-29T20:29:07.245Z,99.90
2023-03-29T20:31:34.596Z,99.90
2023-03-29T20:34:02.026Z,99.90
2023-03-29T20:36:30.601Z,99.90
2023-03-29T20:38:59.154Z,99.90
2023-03-29T20:41:26.787Z,99.90
2023-03-29T20:44:00.312Z,99.90
2023-03-29T20:46:35.689Z,99.90
2023-03-29T20:49:05.559Z,99.90
2023-03-29T20:51:33.168Z,99.90
2023-03-29T20:54:05.894Z,99.90
2023-03-29T20:56:39.678Z,99.90
2023-03-29T20:59:10.507Z,99.90
2023-03-29T21:01:40.995Z,99.90
2023-03-29T21:04:10.598Z,99.90
2023-03-29T21:06:39.461Z,99.90
2023-03-29T21:09:07.214Z,99.90
2023-03-29T21:11:59.579Z,99.90
2023-03-29T21:14:26.997Z,99.90
2023-03-29T21:16:54.203Z,99.90
2023-03-29T21:19:21.468Z,99.90
2023-03-29T21:21:52.128Z,99.90
2023-03-29T21:24:19.555Z,99.90
2023-03-29T21:26:46.890Z,99.90
2023-03-29T21:29:14.173Z,99.90
2023-03-29T21:31:41.784Z,99.90
2023-03-29T21:34:09.101Z,99.90
2023-03-29T21:36:36.331Z,99.90
2023-03-29T21:39:04.017Z,99.90
2023-03-29T21:41:31.376Z,99.90
2023-03-29T21:43:58.594Z,99.90
2023-03-29T21:46:26.294Z,99.90
2023-03-29T21:48:53.778Z,99.90
2023-03-29T21:51:21.056Z,99.90
2023-03-29T21:53:48.315Z,99.90
2023-03-29T21:56:15.702Z,99.90
2023-03-29T21:58:43.016Z,99.90
2023-03-29T22:01:10.631Z,99.90
2023-03-29T22:03:38.489Z,99.90
2023-03-29T22:06:10.430Z,99.90
2023-03-29T22:08:43.310Z,99.90
2023-03-29T22:11:14.298Z,99.90
2023-03-29T22:13:43.122Z,99.90
2023-03-29T22:16:18.223Z,99.90
2023-03-29T22:18:49.581Z,99.90
2023-03-29T22:21:31.024Z,99.90
2023-03-29T22:24:00.108Z,99.90
2023-03-29T22:26:30.403Z,99.90
2023-03-29T22:28:59.425Z,99.90
2023-03-29T22:31:28.620Z,99.90
2023-03-29T22:33:56.271Z,99.90
2023-03-29T22:36:27.081Z,99.90
2023-03-29T22:38:54.841Z,99.90
2023-03-29T22:41:23.740Z,99.90
2023-03-29T22:43:52.597Z,99.90
2023-03-29T22:46:20.836Z,99.90
2023-03-29T22:48:48.627Z,99.90
2023-03-29T22:51:16.717Z,99.90
2023-03-29T22:53:43.976Z,99.90
2023-03-29T22:56:17.113Z,99.90
2023-03-29T22:58:44.780Z,99.90
2023-03-29T23:01:12.591Z,99.90
2023-03-29T23:03:39.841Z,99.90
2023-03-29T23:06:07.658Z,99.90
2023-03-29T23:08:35.267Z,99.90
2023-03-29T23:11:03.658Z,99.90
2023-03-29T23:13:31.171Z,99.90
2023-03-29T23:16:00.078Z,99.90
2023-03-29T23:18:30.192Z,99.90
2023-03-29T23:20:59.128Z,99.90
2023-03-29T23:23:27.188Z,99.90
2023-03-29T23:25:55.782Z,99.90
2023-03-29T23:28:27.023Z,99.90
2023-03-29T23:31:03.522Z,99.90
2023-03-29T23:33:36.264Z,99.90
2023-03-29T23:36:05.981Z,99.90
2023-03-29T23:38:35.474Z,99.90
2023-03-29T23:41:06.124Z,99.90
2023-03-29T23:43:37.145Z,99.90
2023-03-29T23:46:07.042Z,99.90
2023-03-29T23:48:34.689Z,99.90
2023-03-29T23:51:03.118Z,99.90
2023-03-29T23:53:31.442Z,99.90
2023-03-29T23:56:01.258Z,99.90
2023-03-29T23:58:33.692Z,99.90
